sensor_id;sensor_type;location;lat;lon;timestamp;pressure;altitude;pressure_sealevel;temperature;humidity
21828;BME280;11076;47.942;11.804;2023-11-21T00:04:48;93742.31;;;17.44;39.27
21828;BME280;11076;47.942;11.804;2023-11-21T00:09:51;93741.78;;;17.42;39.29
21828;BME280;11076;47.942;11.804;2023-11-21T00:14:53;93750.97;;;17.46;39.55
21828;BME280;11076;47.942;11.804;2023-11-21T00:19:57;93737.91;;;17.58;39.67
21828;BME280;11076;47.942;11.804;2023-11-21T00:24:59;93735.09;;;17.89;39.20
21828;BME280;11076;47.942;11.804;2023-11-21T00:30:03;93731.72;;;18.07;38.86
21828;BME280;11076;47.942;11.804;2023-11-21T00:35:08;93724.47;;;17.98;38.88
21828;BME280;11076;47.942;11.804;2023-11-21T00:40:12;93735.63;;;17.86;39.43
21828;BME280;11076;47.942;11.804;2023-11-21T00:45:14;93723.56;;;17.68;39.65
21828;BME280;11076;47.942;11.804;2023-11-21T00:50:17;93728.66;;;17.75;39.46
21828;BME280;11076;47.942;11.804;2023-11-21T00:55:20;93713.47;;;17.89;39.15
21828;BME280;11076;47.942;11.804;2023-11-21T01:00:23;93715.09;;;17.80;39.06
21828;BME280;11076;47.942;11.804;2023-11-21T01:05:25;93721.09;;;17.72;39.58
21828;BME280;11076;47.942;11.804;2023-11-21T01:10:29;93717.34;;;17.67;39.61
21828;BME280;11076;47.942;11.804;2023-11-21T01:15:32;93712.81;;;17.58;39.70
21828;BME280;11076;47.942;11.804;2023-11-21T01:20:34;93709.81;;;17.59;39.62
21828;BME280;11076;47.942;11.804;2023-11-21T01:25:37;93701.47;;;17.50;39.83
21828;BME280;11076;47.942;11.804;2023-11-21T01:30:39;93704.75;;;17.42;39.68
21828;BME280;11076;47.942;11.804;2023-11-21T01:35:42;93712.53;;;17.54;39.79
21828;BME280;11076;47.942;11.804;2023-11-21T01:40:45;93710.91;;;17.58;39.81
21828;BME280;11076;47.942;11.804;2023-11-21T01:45:47;93699.72;;;17.25;40.30
21828;BME280;11076;47.942;11.804;2023-11-21T01:50:50;93695.94;;;17.26;40.18
21828;BME280;11076;47.942;11.804;2023-11-21T01:55:53;93704.88;;;17.22;40.25
21828;BME280;11076;47.942;11.804;2023-11-21T02:01:00;93694.94;;;17.07;40.19
21828;BME280;11076;47.942;11.804;2023-11-21T02:06:03;93696.63;;;16.72;40.68
21828;BME280;11076;47.942;11.804;2023-11-21T02:11:07;93705.78;;;16.71;40.72
21828;BME280;11076;47.942;11.804;2023-11-21T02:16:12;93700.41;;;16.71;41.02
21828;BME280;11076;47.942;11.804;2023-11-21T02:21:15;93702.81;;;16.93;41.11
21828;BME280;11076;47.942;11.804;2023-11-21T02:26:17;93701.97;;;17.03;41.06
21828;BME280;11076;47.942;11.804;2023-11-21T02:31:20;93700.94;;;16.88;41.47
21828;BME280;11076;47.942;11.804;2023-11-21T02:36:23;93692.69;;;17.24;41.17
21828;BME280;11076;47.942;11.804;2023-11-21T02:41:25;93693.69;;;17.39;41.15
21828;BME280;11076;47.942;11.804;2023-11-21T02:46:28;93693.09;;;17.52;40.92
21828;BME280;11076;47.942;11.804;2023-11-21T02:51:30;93693.81;;;17.18;41.47
21828;BME280;11076;47.942;11.804;2023-11-21T02:56:33;93682.34;;;17.47;41.13
21828;BME280;11076;47.942;11.804;2023-11-21T03:01:37;93675.16;;;17.72;40.75
21828;BME280;11076;47.942;11.804;2023-11-21T03:06:40;93689.81;;;17.60;41.21
21828;BME280;11076;47.942;11.804;2023-11-21T03:11:42;93679.75;;;17.21;41.70
21828;BME280;11076;47.942;11.804;2023-11-21T03:16:45;93692.16;;;17.27;41.52
21828;BME280;11076;47.942;11.804;2023-11-21T03:21:47;93692.63;;;17.40;41.35
21828;BME280;11076;47.942;11.804;2023-11-21T03:26:50;93688.88;;;17.36;41.49
21828;BME280;11076;47.942;11.804;2023-11-21T03:31:53;93689.13;;;17.39;41.50
21828;BME280;11076;47.942;11.804;2023-11-21T03:36:55;93700.72;;;17.40;41.51
21828;BME280;11076;47.942;11.804;2023-11-21T03:41:58;93700.72;;;17.40;41.43
21828;BME280;11076;47.942;11.804;2023-11-21T03:47:00;93693.09;;;17.52;41.34
21828;BME280;11076;47.942;11.804;2023-11-21T03:52:03;93690.84;;;17.64;41.10
21828;BME280;11076;47.942;11.804;2023-11-21T03:57:07;93685.38;;;17.80;41.10
21828;BME280;11076;47.942;11.804;2023-11-21T04:02:11;93689.00;;;17.60;41.20
21828;BME280;11076;47.942;11.804;2023-11-21T04:07:13;93691.25;;;17.92;40.54
21828;BME280;11076;47.942;11.804;2023-11-21T04:12:16;93682.63;;;17.90;40.85
21828;BME280;11076;47.942;11.804;2023-11-21T04:17:19;93681.50;;;17.96;40.86
21828;BME280;11076;47.942;11.804;2023-11-21T04:22:22;93674.50;;;17.90;40.71
21828;BME280;11076;47.942;11.804;2023-11-21T04:27:24;93675.41;;;17.75;41.13
21828;BME280;11076;47.942;11.804;2023-11-21T04:32:26;93673.66;;;17.50;41.51
21828;BME280;11076;47.942;11.804;2023-11-21T04:37:29;93657.97;;;17.02;42.17
21828;BME280;11076;47.942;11.804;2023-11-21T04:42:34;93657.69;;;17.09;42.24
21828;BME280;11076;47.942;11.804;2023-11-21T04:47:37;93666.84;;;17.08;42.18
21828;BME280;11076;47.942;11.804;2023-11-21T04:52:39;93674.94;;;17.08;42.33
21828;BME280;11076;47.942;11.804;2023-11-21T04:57:42;93674.31;;;17.26;42.18
21828;BME280;11076;47.942;11.804;2023-11-21T05:02:44;93683.44;;;17.41;42.02
21828;BME280;11076;47.942;11.804;2023-11-21T05:07:48;93688.41;;;17.68;41.62
21828;BME280;11076;47.942;11.804;2023-11-21T05:12:51;93683.41;;;17.46;41.92
21828;BME280;11076;47.942;11.804;2023-11-21T05:17:53;93696.38;;;17.44;42.00
21828;BME280;11076;47.942;11.804;2023-11-21T05:22:56;93692.63;;;17.45;41.81
21828;BME280;11076;47.942;11.804;2023-11-21T05:27:58;93692.91;;;17.38;42.27
21828;BME280;11076;47.942;11.804;2023-11-21T05:33:03;93694.72;;;17.53;42.03
21828;BME280;11076;47.942;11.804;2023-11-21T05:38:05;93708.44;;;17.62;42.14
21828;BME280;11076;47.942;11.804;2023-11-21T05:43:08;93704.47;;;17.49;42.48
21828;BME280;11076;47.942;11.804;2023-11-21T05:48:10;93700.13;;;17.53;42.41
21828;BME280;11076;47.942;11.804;2023-11-21T05:53:13;93712.00;;;17.52;42.55
21828;BME280;11076;47.942;11.804;2023-11-21T05:58:17;93714.22;;;17.45;42.53
21828;BME280;11076;47.942;11.804;2023-11-21T06:03:20;93704.22;;;17.45;42.78
21828;BME280;11076;47.942;11.804;2023-11-21T06:08:22;93715.31;;;17.39;42.84
21828;BME280;11076;47.942;11.804;2023-11-21T06:13:25;93721.88;;;17.27;43.00
21828;BME280;11076;47.942;11.804;2023-11-21T06:18:27;93731.34;;;17.20;43.24
21828;BME280;11076;47.942;11.804;2023-11-21T06:23:29;93723.50;;;17.23;43.16
21828;BME280;11076;47.942;11.804;2023-11-21T06:28:33;93729.66;;;17.34;43.02
21828;BME280;11076;47.942;11.804;2023-11-21T06:33:35;93728.50;;;17.56;43.07
21828;BME280;11076;47.942;11.804;2023-11-21T06:38:38;93739.50;;;17.64;43.09
21828;BME280;11076;47.942;11.804;2023-11-21T06:43:40;93741.22;;;18.00;42.29
21828;BME280;11076;47.942;11.804;2023-11-21T06:48:43;93753.47;;;17.82;42.73
21828;BME280;11076;47.942;11.804;2023-11-21T06:53:45;93763.44;;;17.97;42.38
21828;BME280;11076;47.942;11.804;2023-11-21T06:58:48;93765.84;;;17.98;42.57
21828;BME280;11076;47.942;11.804;2023-11-21T07:03:51;93765.81;;;18.08;42.60
21828;BME280;11076;47.942;11.804;2023-11-21T07:08:53;93762.94;;;18.29;42.14
21828;BME280;11076;47.942;11.804;2023-11-21T07:13:56;93770.09;;;18.15;41.90
21828;BME280;11076;47.942;11.804;2023-11-21T07:18:58;93762.16;;;18.23;42.13
21828;BME280;11076;47.942;11.804;2023-11-21T07:24:01;93766.19;;;18.31;41.90
21828;BME280;11076;47.942;11.804;2023-11-21T07:29:04;93762.16;;;18.23;41.99
21828;BME280;11076;47.942;11.804;2023-11-21T07:34:06;93766.44;;;18.29;42.01
21828;BME280;11076;47.942;11.804;2023-11-21T07:39:10;93768.25;;;18.05;42.47
21828;BME280;11076;47.942;11.804;2023-11-21T07:44:12;93776.66;;;17.98;42.59
21828;BME280;11076;47.942;11.804;2023-11-21T07:49:15;93783.28;;;17.72;43.05
21828;BME280;11076;47.942;11.804;2023-11-21T07:54:22;93782.59;;;18.00;42.66
21828;BME280;11076;47.942;11.804;2023-11-21T07:59:25;93763.22;;;18.27;42.58
21828;BME280;11076;47.942;11.804;2023-11-21T08:04:27;93771.84;;;18.35;42.72
21828;BME280;11076;47.942;11.804;2023-11-21T08:09:31;93771.78;;;18.74;42.28
21828;BME280;11076;47.942;11.804;2023-11-21T08:14:33;93775.44;;;19.18;42.08
21828;BME280;11076;47.942;11.804;2023-11-21T08:19:36;93780.63;;;19.62;41.72
21828;BME280;11076;47.942;11.804;2023-11-21T08:24:39;93771.84;;;19.71;41.53
21828;BME280;11076;47.942;11.804;2023-11-21T08:29:42;93785.59;;;19.55;41.87
21828;BME280;11076;47.942;11.804;2023-11-21T08:34:45;93766.09;;;20.15;41.49
21828;BME280;11076;47.942;11.804;2023-11-21T08:39:47;93762.53;;;20.20;41.33
21828;BME280;11076;47.942;11.804;2023-11-21T08:44:58;93762.25;;;20.02;40.65
21828;BME280;11076;47.942;11.804;2023-11-21T08:50:00;93764.28;;;20.30;40.97
21828;BME280;11076;47.942;11.804;2023-11-21T08:55:04;93781.59;;;20.15;40.71
21828;BME280;11076;47.942;11.804;2023-11-21T09:00:10;93786.06;;;19.86;40.63
21828;BME280;11076;47.942;11.804;2023-11-21T09:05:14;93795.78;;;19.63;40.95
21828;BME280;11076;47.942;11.804;2023-11-21T09:10:17;93800.31;;;19.73;40.49
21828;BME280;11076;47.942;11.804;2023-11-21T09:15:20;93806.00;;;19.47;40.75
21828;BME280;11076;47.942;11.804;2023-11-21T09:20:22;93815.16;;;19.27;40.44
21828;BME280;11076;47.942;11.804;2023-11-21T09:25:25;93814.63;;;19.25;40.45
21828;BME280;11076;47.942;11.804;2023-11-21T09:30:27;93822.34;;;19.42;40.08
21828;BME280;11076;47.942;11.804;2023-11-21T09:35:30;93823.84;;;19.54;40.14
21828;BME280;11076;47.942;11.804;2023-11-21T09:40:32;93830.47;;;19.66;39.78
21828;BME280;11076;47.942;11.804;2023-11-21T09:45:35;93834.25;;;19.41;40.20
21828;BME280;11076;47.942;11.804;2023-11-21T09:50:39;93832.19;;;19.33;40.43
21828;BME280;11076;47.942;11.804;2023-11-21T09:55:43;93824.47;;;19.70;40.11
21828;BME280;11076;47.942;11.804;2023-11-21T10:00:48;93817.06;;;19.99;39.85
21828;BME280;11076;47.942;11.804;2023-11-21T10:05:52;93813.91;;;19.92;39.59
21828;BME280;11076;47.942;11.804;2023-11-21T10:10:56;93814.25;;;19.61;39.85
21828;BME280;11076;47.942;11.804;2023-11-21T10:15:59;93818.38;;;19.30;40.12
21828;BME280;11076;47.942;11.804;2023-11-21T10:21:02;93824.00;;;19.38;40.01
21828;BME280;11076;47.942;11.804;2023-11-21T10:26:07;93821.06;;;19.83;39.80
21828;BME280;11076;47.942;11.804;2023-11-21T10:31:22;93825.81;;;19.72;39.69
21828;BME280;11076;47.942;11.804;2023-11-21T10:36:27;93816.81;;;19.77;39.62
21828;BME280;11076;47.942;11.804;2023-11-21T10:41:30;93815.72;;;19.78;39.37
21828;BME280;11076;47.942;11.804;2023-11-21T10:46:33;93821.88;;;19.83;39.39
21828;BME280;11076;47.942;11.804;2023-11-21T10:51:36;93827.41;;;19.49;39.45
21828;BME280;11076;47.942;11.804;2023-11-21T10:56:39;93825.91;;;19.38;39.79
21828;BME280;11076;47.942;11.804;2023-11-21T11:01:45;93828.94;;;19.31;39.99
21828;BME280;11076;47.942;11.804;2023-11-21T11:06:58;93832.19;;;19.57;39.94
21828;BME280;11076;47.942;11.804;2023-11-21T11:12:06;93831.28;;;19.43;40.13
21828;BME280;11076;47.942;11.804;2023-11-21T11:17:09;93824.00;;;19.38;40.37
21828;BME280;11076;47.942;11.804;2023-11-21T11:27:40;93830.97;;;19.74;39.91
21828;BME280;11076;47.942;11.804;2023-11-21T11:33:07;93824.66;;;19.78;39.88
21828;BME280;11076;47.942;11.804;2023-11-21T11:38:12;93822.84;;;19.68;40.06
21828;BME280;11076;47.942;11.804;2023-11-21T11:43:24;93814.63;;;20.60;39.94
21828;BME280;11076;47.942;11.804;2023-11-21T11:48:27;93809.91;;;20.46;38.94
21828;BME280;11076;47.942;11.804;2023-11-21T11:53:38;93802.56;;;20.28;39.87
21828;BME280;11076;47.942;11.804;2023-11-21T11:58:42;93808.09;;;20.94;39.25
21828;BME280;11076;47.942;11.804;2023-11-21T12:03:44;93806.75;;;21.24;38.80
21828;BME280;11076;47.942;11.804;2023-11-21T12:08:47;93806.78;;;21.38;38.26
21828;BME280;11076;47.942;11.804;2023-11-21T12:13:49;93802.94;;;21.25;38.55
21828;BME280;11076;47.942;11.804;2023-11-21T12:18:54;93794.22;;;20.95;38.44
21828;BME280;11076;47.942;11.804;2023-11-21T12:23:56;93795.91;;;21.38;38.41
21828;BME280;11076;47.942;11.804;2023-11-21T12:28:58;93804.59;;;21.68;38.08
21828;BME280;11076;47.942;11.804;2023-11-21T12:34:01;93810.00;;;21.40;38.55
21828;BME280;11076;47.942;11.804;2023-11-21T12:39:04;93806.31;;;21.50;38.56
21828;BME280;11076;47.942;11.804;2023-11-21T12:44:11;93811.69;;;21.36;38.28
21828;BME280;11076;47.942;11.804;2023-11-21T12:49:14;93808.13;;;21.08;37.94
21828;BME280;11076;47.942;11.804;2023-11-21T12:54:19;93811.38;;;21.23;38.07
21828;BME280;11076;47.942;11.804;2023-11-21T12:59:22;93809.34;;;21.01;37.82
21828;BME280;11076;47.942;11.804;2023-11-21T13:04:32;93805.72;;;21.06;37.26
21828;BME280;11076;47.942;11.804;2023-11-21T13:09:37;93803.75;;;21.25;37.71
21828;BME280;11076;47.942;11.804;2023-11-21T13:14:42;93803.56;;;21.36;36.92
21828;BME280;11076;47.942;11.804;2023-11-21T13:19:45;93808.16;;;21.21;37.83
21828;BME280;11076;47.942;11.804;2023-11-21T13:24:47;93807.22;;;21.73;37.29
21828;BME280;11076;47.942;11.804;2023-11-21T13:29:50;93806.19;;;21.82;36.73
21828;BME280;11076;47.942;11.804;2023-11-21T13:34:53;93816.94;;;20.85;37.57
21828;BME280;11076;47.942;11.804;2023-11-21T13:39:56;93824.06;;;20.62;37.83
21828;BME280;11076;47.942;11.804;2023-11-21T13:44:59;93821.28;;;21.00;37.63
21828;BME280;11076;47.942;11.804;2023-11-21T13:50:02;93829.22;;;20.97;37.44
21828;BME280;11076;47.942;11.804;2023-11-21T13:55:05;93838.38;;;21.34;37.38
21828;BME280;11076;47.942;11.804;2023-11-21T14:00:16;93839.47;;;21.33;37.12
21828;BME280;11076;47.942;11.804;2023-11-21T14:05:37;93840.44;;;20.76;37.81
21828;BME280;11076;47.942;11.804;2023-11-21T14:10:39;93837.66;;;20.43;38.48
21828;BME280;11076;47.942;11.804;2023-11-21T14:15:45;93851.44;;;20.28;38.70
21828;BME280;11076;47.942;11.804;2023-11-21T14:20:48;93852.25;;;20.66;38.58
21828;BME280;11076;47.942;11.804;2023-11-21T14:25:51;93845.97;;;21.04;38.13
21828;BME280;11076;47.942;11.804;2023-11-21T14:30:54;93856.72;;;20.95;37.94
21828;BME280;11076;47.942;11.804;2023-11-21T14:35:56;93866.91;;;20.46;38.26
21828;BME280;11076;47.942;11.804;2023-11-21T14:40:59;93866.06;;;20.08;38.89
21828;BME280;11076;47.942;11.804;2023-11-21T14:46:02;93871.66;;;19.68;38.81
21828;BME280;11076;47.942;11.804;2023-11-21T14:51:06;93881.03;;;19.28;39.09
21828;BME280;11076;47.942;11.804;2023-11-21T14:56:10;93877.59;;;19.46;39.04
21828;BME280;11076;47.942;11.804;2023-11-21T15:01:12;93883.75;;;18.94;39.66
21828;BME280;11076;47.942;11.804;2023-11-21T15:06:15;93883.19;;;18.97;39.73
21828;BME280;11076;47.942;11.804;2023-11-21T15:11:21;93894.09;;;18.86;39.98
21828;BME280;11076;47.942;11.804;2023-11-21T15:16:29;93901.56;;;18.60;40.59
21828;BME280;11076;47.942;11.804;2023-11-21T15:21:32;93904.50;;;18.64;40.67
21828;BME280;11076;47.942;11.804;2023-11-21T15:26:35;93908.41;;;18.47;40.96
21828;BME280;11076;47.942;11.804;2023-11-21T15:31:38;93920.44;;;18.21;41.28
21828;BME280;11076;47.942;11.804;2023-11-21T15:36:42;93925.38;;;18.03;41.60
21828;BME280;11076;47.942;11.804;2023-11-21T15:41:45;93918.88;;;18.09;41.48
21828;BME280;11076;47.942;11.804;2023-11-21T15:46:49;93919.97;;;18.03;41.50
21828;BME280;11076;47.942;11.804;2023-11-21T15:51:51;93925.91;;;18.11;41.34
21828;BME280;11076;47.942;11.804;2023-11-21T15:56:59;93922.09;;;18.17;41.40
21828;BME280;11076;47.942;11.804;2023-11-21T16:02:02;93936.22;;;18.03;41.56
21828;BME280;11076;47.942;11.804;2023-11-21T16:07:09;93934.03;;;18.00;41.36
21828;BME280;11076;47.942;11.804;2023-11-21T16:12:13;93936.22;;;17.98;41.41
21828;BME280;11076;47.942;11.804;2023-11-21T16:17:15;93948.00;;;18.33;40.96
21828;BME280;11076;47.942;11.804;2023-11-21T16:22:20;93950.78;;;18.13;41.36
21828;BME280;11076;47.942;11.804;2023-11-21T16:27:22;93956.09;;;18.33;41.48
21828;BME280;11076;47.942;11.804;2023-11-21T16:32:25;93959.88;;;18.37;41.73
21828;BME280;11076;47.942;11.804;2023-11-21T16:37:28;93963.84;;;18.50;41.41
21828;BME280;11076;47.942;11.804;2023-11-21T16:42:30;93975.28;;;18.42;41.55
21828;BME280;11076;47.942;11.804;2023-11-21T16:47:34;93981.06;;;18.15;42.18
21828;BME280;11076;47.942;11.804;2023-11-21T16:52:39;93993.53;;;18.05;42.39
21828;BME280;11076;47.942;11.804;2023-11-21T16:57:42;94006.28;;;17.89;42.49
21828;BME280;11076;47.942;11.804;2023-11-21T17:02:45;94005.16;;;18.06;42.47
21828;BME280;11076;47.942;11.804;2023-11-21T17:07:48;94018.16;;;18.04;42.43
21828;BME280;11076;47.942;11.804;2023-11-21T17:12:50;94011.44;;;17.91;42.46
21828;BME280;11076;47.942;11.804;2023-11-21T17:17:53;94024.69;;;17.87;42.76
21828;BME280;11076;47.942;11.804;2023-11-21T17:22:57;94020.59;;;17.90;42.53
21828;BME280;11076;47.942;11.804;2023-11-21T17:28:00;94024.91;;;18.01;42.29
21828;BME280;11076;47.942;11.804;2023-11-21T17:33:02;94026.56;;;17.61;42.97
21828;BME280;11076;47.942;11.804;2023-11-21T17:38:05;94016.84;;;17.65;43.09
21828;BME280;11076;47.942;11.804;2023-11-21T17:43:08;94032.25;;;17.91;42.68
21828;BME280;11076;47.942;11.804;2023-11-21T17:48:12;94032.75;;;17.82;42.80
21828;BME280;11076;47.942;11.804;2023-11-21T17:53:15;94036.31;;;17.57;43.21
21828;BME280;11076;47.942;11.804;2023-11-21T17:58:17;94036.84;;;17.44;43.57
21828;BME280;11076;47.942;11.804;2023-11-21T18:03:20;94036.56;;;17.66;43.22
21828;BME280;11076;47.942;11.804;2023-11-21T18:08:22;94043.84;;;17.70;42.88
21828;BME280;11076;47.942;11.804;2023-11-21T18:13:25;94042.50;;;17.68;43.38
21828;BME280;11076;47.942;11.804;2023-11-21T18:18:27;94049.81;;;17.32;44.19
21828;BME280;11076;47.942;11.804;2023-11-21T18:23:30;94050.63;;;17.42;43.89
21828;BME280;11076;47.942;11.804;2023-11-21T18:28:32;94049.00;;;17.57;43.60
21828;BME280;11076;47.942;11.804;2023-11-21T18:33:35;94055.22;;;17.42;43.67
21828;BME280;11076;47.942;11.804;2023-11-21T18:38:38;94059.53;;;17.48;43.70
21828;BME280;11076;47.942;11.804;2023-11-21T18:43:40;94061.69;;;17.56;43.54
21828;BME280;11076;47.942;11.804;2023-11-21T18:48:43;94060.63;;;17.42;44.07
21828;BME280;11076;47.942;11.804;2023-11-21T18:53:49;94065.50;;;17.55;43.96
21828;BME280;11076;47.942;11.804;2023-11-21T18:58:52;94074.41;;;17.71;43.61
21828;BME280;11076;47.942;11.804;2023-11-21T19:03:55;94087.13;;;17.65;43.94
21828;BME280;11076;47.942;11.804;2023-11-21T19:09:00;94098.22;;;17.69;43.62
21828;BME280;11076;47.942;11.804;2023-11-21T19:14:02;94093.84;;;17.53;43.93
21828;BME280;11076;47.942;11.804;2023-11-21T19:19:05;94104.13;;;17.50;43.92
21828;BME280;11076;47.942;11.804;2023-11-21T19:24:09;94109.25;;;17.52;43.50
21828;BME280;11076;47.942;11.804;2023-11-21T19:29:11;94118.44;;;17.46;43.30
21828;BME280;11076;47.942;11.804;2023-11-21T19:34:14;94109.75;;;17.28;43.42
21828;BME280;11076;47.942;11.804;2023-11-21T19:39:19;94114.66;;;17.32;43.02
21828;BME280;11076;47.942;11.804;2023-11-21T19:44:22;94117.84;;;17.18;42.73
21828;BME280;11076;47.942;11.804;2023-11-21T19:49:24;94131.91;;;17.30;42.95
21828;BME280;11076;47.942;11.804;2023-11-21T19:54:27;94135.75;;;17.55;42.94
21828;BME280;11076;47.942;11.804;2023-11-21T19:59:30;94141.97;;;17.76;42.87
21828;BME280;11076;47.942;11.804;2023-11-21T20:04:34;94146.31;;;17.72;43.17
21828;BME280;11076;47.942;11.804;2023-11-21T20:09:37;94152.06;;;18.06;42.49
21828;BME280;11076;47.942;11.804;2023-11-21T20:14:39;94165.22;;;17.72;43.35
21828;BME280;11076;47.942;11.804;2023-11-21T20:19:45;94169.84;;;17.72;43.16
21828;BME280;11076;47.942;11.804;2023-11-21T20:24:47;94177.94;;;17.61;43.42
21828;BME280;11076;47.942;11.804;2023-11-21T20:29:50;94179.28;;;17.59;43.37
21828;BME280;11076;47.942;11.804;2023-11-21T20:34:52;94188.47;;;17.68;43.45
21828;BME280;11076;47.942;11.804;2023-11-21T20:39:55;94197.47;;;18.04;42.77
21828;BME280;11076;47.942;11.804;2023-11-21T20:44:57;94197.69;;;17.67;43.63
21828;BME280;11076;47.942;11.804;2023-11-21T20:50:00;94191.47;;;17.77;43.73
21828;BME280;11076;47.942;11.804;2023-11-21T20:55:02;94193.91;;;17.73;43.78
21828;BME280;11076;47.942;11.804;2023-11-21T21:00:07;94196.88;;;17.82;43.51
21828;BME280;11076;47.942;11.804;2023-11-21T21:05:14;94203.97;;;18.19;43.07
21828;BME280;11076;47.942;11.804;2023-11-21T21:10:17;94210.94;;;17.79;43.95
21828;BME280;11076;47.942;11.804;2023-11-21T21:15:19;94212.00;;;17.78;44.22
21828;BME280;11076;47.942;11.804;2023-11-21T21:20:22;94216.41;;;17.89;43.99
21828;BME280;11076;47.942;11.804;2023-11-21T21:25:25;94219.66;;;18.01;43.84
21828;BME280;11076;47.942;11.804;2023-11-21T21:30:27;94215.88;;;18.23;43.47
21828;BME280;11076;47.942;11.804;2023-11-21T21:35:30;94237.50;;;18.18;43.47
21828;BME280;11076;47.942;11.804;2023-11-21T21:40:32;94232.66;;;18.40;43.05
21828;BME280;11076;47.942;11.804;2023-11-21T21:45:36;94228.31;;;18.19;43.41
21828;BME280;11076;47.942;11.804;2023-11-21T21:50:39;94235.31;;;17.94;44.00
21828;BME280;11076;47.942;11.804;2023-11-21T21:55:43;94227.22;;;17.99;43.95
21828;BME280;11076;47.942;11.804;2023-11-21T22:00:45;94239.13;;;18.03;43.92
21828;BME280;11076;47.942;11.804;2023-11-21T22:05:48;94239.69;;;18.11;43.57
21828;BME280;11076;47.942;11.804;2023-11-21T22:10:51;94234.72;;;17.72;44.17
21828;BME280;11076;47.942;11.804;2023-11-21T22:15:53;94240.09;;;17.61;44.45
21828;BME280;11076;47.942;11.804;2023-11-21T22:20:56;94238.47;;;17.55;44.93
21828;BME280;11076;47.942;11.804;2023-11-21T22:25:58;94241.25;;;17.81;44.59
21828;BME280;11076;47.942;11.804;2023-11-21T22:31:01;94243.72;;;17.98;44.37
21828;BME280;11076;47.942;11.804;2023-11-21T22:36:03;94245.44;;;17.41;45.36
21828;BME280;11076;47.942;11.804;2023-11-21T22:41:06;94250.97;;;17.08;45.97
21828;BME280;11076;47.942;11.804;2023-11-21T22:46:09;94253.84;;;16.92;46.20
21828;BME280;11076;47.942;11.804;2023-11-21T22:51:14;94243.56;;;16.83;46.32
21828;BME280;11076;47.942;11.804;2023-11-21T22:56:17;94241.81;;;17.15;45.74
21828;BME280;11076;47.942;11.804;2023-11-21T23:01:24;94251.25;;;17.12;46.03
21828;BME280;11076;47.942;11.804;2023-11-21T23:06:27;94257.34;;;17.45;45.34
21828;BME280;11076;47.942;11.804;2023-11-21T23:11:31;94264.66;;;17.55;45.23
21828;BME280;11076;47.942;11.804;2023-11-21T23:16:33;94266.50;;;17.39;45.24
21828;BME280;11076;47.942;11.804;2023-11-21T23:21:36;94268.59;;;17.21;45.69
21828;BME280;11076;47.942;11.804;2023-11-21T23:26:38;94277.53;;;16.79;46.40
21828;BME280;11076;47.942;11.804;2023-11-21T23:31:43;94270.72;;;16.77;46.60
21828;BME280;11076;47.942;11.804;2023-11-21T23:36:45;94265.50;;;16.60;46.56
21828;BME280;11076;47.942;11.804;2023-11-21T23:41:49;94279.03;;;16.27;47.11
21828;BME280;11076;47.942;11.804;2023-11-21T23:46:51;94274.16;;;15.97;47.79
21828;BME280;11076;47.942;11.804;2023-11-21T23:51:53;94273.00;;;16.20;47.24
21828;BME280;11076;47.942;11.804;2023-11-21T23:56:56;94267.59;;;16.47;46.61
